Time;durP1;ratioP1;P1;durP2;ratioP2;P2;SDS_P1;SDS_P2;PMS_P1;PMS_P2;Temp;Humidity;BMP_temperature;BMP_pressure;BME280_temperature;BME280_humidity;BME280_pressure;Samples;Min_cycle;Max_cycle;Signal;HPM_P1;HPM_P2
2022/02/01 00:03:15;;;;;;;5.30;1.42;;;5.30;90.80;;;;;;9971560;28;20031;-68
2022/02/01 00:08:11;;;;;;;7.43;1.90;;;5.30;90.80;;;;;;9966007;28;20252;-67
2022/02/01 00:13:13;;;;;;;5.75;1.63;;;5.30;90.80;;;;;;9951001;28;20104;-68
2022/02/01 00:38:32;;;;;;;4.95;2.42;;;5.50;90.80;;;;;;9972622;28;20100;-68
2022/02/01 00:43:23;;;;;;;1.88;1.13;;;5.50;90.80;;;;;;9976508;28;20508;-65
2022/02/01 00:48:14;;;;;;;4.70;1.50;;;5.40;90.70;;;;;;9969249;28;20038;-68
2022/02/01 00:53:05;;;;;;;6.60;2.20;;;5.40;90.80;;;;;;9966747;28;20048;-67
2022/02/01 00:57:56;;;;;;;7.70;1.98;;;5.40;90.80;;;;;;9957516;28;20049;-67
2022/02/01 01:02:47;;;;;;;6.35;1.83;;;5.30;90.90;;;;;;9974822;28;20477;-68
2022/02/01 01:07:37;;;;;;;4.65;1.55;;;5.30;90.90;;;;;;9964362;28;20039;-68
2022/02/01 01:12:31;;;;;;;4.85;1.80;;;5.30;91.00;;;;;;9969559;28;20030;-67
2022/02/01 01:53:16;;;;;;;5.88;1.45;;;5.10;91.10;;;;;;9951628;28;20100;-68
2022/02/01 01:58:07;;;;;;;5.20;1.70;;;5.20;91.20;;;;;;9972674;28;20113;-66
2022/02/01 02:02:58;;;;;;;5.95;1.48;;;5.20;91.10;;;;;;9961471;28;20042;-67
2022/02/01 02:07:50;;;;;;;2.75;0.98;;;5.20;91.20;;;;;;9967583;28;20559;-66
2022/02/01 02:13:00;;;;;;;4.43;0.95;;;5.20;91.20;;;;;;9976655;28;20040;-67
2022/02/01 02:17:51;;;;;;;8.80;2.08;;;5.20;91.30;;;;;;9960817;28;20077;-67
2022/02/01 02:22:42;;;;;;;3.35;1.88;;;5.10;91.20;;;;;;9963304;28;20485;-67
2022/02/01 02:27:32;;;;;;;5.28;2.60;;;5.10;91.20;;;;;;9954499;28;20046;-67
2022/02/01 02:32:25;;;;;;;5.53;1.33;;;5.20;91.10;;;;;;9966437;28;20137;-66
2022/02/01 02:37:17;;;;;;;13.90;2.50;;;5.10;91.10;;;;;;9967804;28;20333;-70
2022/02/01 02:46:59;;;;;;;4.97;2.42;;;5.10;91.10;;;;;;9967333;28;20030;-69
2022/02/01 02:51:50;;;;;;;6.10;1.92;;;5.10;91.00;;;;;;9953875;28;20121;-69
2022/02/01 02:56:48;;;;;;;4.05;1.27;;;5.10;91.00;;;;;;9949456;28;20422;-68
2022/02/01 03:01:42;;;;;;;11.52;1.95;;;5.10;91.00;;;;;;9961726;28;20026;-67
2022/02/01 03:06:33;;;;;;;5.65;1.52;;;5.00;91.00;;;;;;9972432;28;20142;-68
2022/02/01 03:11:24;;;;;;;10.48;2.50;;;5.00;91.00;;;;;;9960210;28;20151;-66
2022/02/01 03:21:24;;;;;;;8.05;2.38;;;4.90;91.00;;;;;;9955133;28;20045;-68
2022/02/01 03:26:15;;;;;;;9.10;2.47;;;4.90;91.00;;;;;;9967498;28;20067;-68
2022/02/01 03:31:06;;;;;;;9.55;3.13;;;4.90;90.90;;;;;;9968160;28;20034;-68
2022/02/01 03:35:56;;;;;;;5.15;1.73;;;4.80;91.00;;;;;;9974385;28;20415;-67
2022/02/01 03:40:47;;;;;;;13.38;4.40;;;4.70;90.90;;;;;;9969265;28;20034;-67
2022/02/01 03:45:38;;;;;;;23.02;9.18;;;4.80;90.90;;;;;;9963546;28;20036;-67
2022/02/01 03:50:29;;;;;;;5.55;2.38;;;4.80;90.80;;;;;;9978198;28;20038;-68
2022/02/01 03:55:21;;;;;;;9.25;2.05;;;4.70;90.80;;;;;;9970174;28;20105;-67
2022/02/01 04:00:12;;;;;;;3.55;0.90;;;4.70;90.70;;;;;;9969882;28;20022;-67
2022/02/01 04:05:03;;;;;;;4.18;1.40;;;4.70;90.70;;;;;;9983862;28;20053;-67
2022/02/01 04:09:54;;;;;;;5.82;1.50;;;4.70;90.70;;;;;;9967609;28;20038;-67
2022/02/01 04:14:46;;;;;;;3.90;1.10;;;4.70;90.70;;;;;;9960471;28;20026;-68
2022/02/01 04:19:37;;;;;;;5.68;1.50;;;4.70;90.60;;;;;;9969807;28;20536;-69
2022/02/01 04:24:31;;;;;;;5.65;1.10;;;4.70;90.60;;;;;;9967456;28;20073;-67
2022/02/01 04:29:22;;;;;;;3.30;0.95;;;4.70;90.60;;;;;;9973433;28;20042;-67
2022/02/01 04:34:13;;;;;;;7.00;1.65;;;4.70;90.60;;;;;;9959946;28;20093;-68
2022/02/01 04:39:05;;;;;;;8.25;1.55;;;4.70;90.50;;;;;;9969670;28;20493;-69
2022/02/01 04:43:59;;;;;;;3.75;1.20;;;4.70;90.40;;;;;;9973572;28;20050;-69
2022/02/01 04:48:51;;;;;;;3.40;1.05;;;4.70;90.40;;;;;;9972665;28;20038;-67
2022/02/01 04:53:46;;;;;;;2.25;1.27;;;4.70;90.40;;;;;;9957269;28;20042;-68
2022/02/01 04:58:36;;;;;;;2.97;1.33;;;4.70;90.40;;;;;;9978021;28;20042;-66
2022/02/01 05:03:27;;;;;;;5.20;1.05;;;4.70;90.40;;;;;;9974738;28;20037;-67
2022/02/01 05:08:18;;;;;;;6.70;1.45;;;4.60;90.30;;;;;;9982680;28;20057;-67
2022/02/01 05:18:25;;;;;;;8.30;1.77;;;4.60;90.30;;;;;;9967586;28;20519;-69
2022/02/01 05:23:17;;;;;;;2.97;1.13;;;4.60;90.30;;;;;;9977587;28;20591;-68
2022/02/01 05:28:08;;;;;;;5.45;1.15;;;4.50;90.30;;;;;;9966884;28;20594;-67
2022/02/01 05:32:58;;;;;;;4.70;1.00;;;4.50;90.30;;;;;;9970343;28;20026;-69
2022/02/01 05:37:49;;;;;;;6.30;2.78;;;4.50;90.30;;;;;;9973091;28;20030;-67
2022/02/01 05:43:01;;;;;;;4.63;0.73;;;4.50;90.30;;;;;;9968603;28;20037;-68
2022/02/01 05:47:53;;;;;;;4.07;1.42;;;4.60;90.30;;;;;;9973798;28;20048;-68
2022/02/01 05:52:43;;;;;;;3.55;1.30;;;4.50;90.30;;;;;;9957886;28;20073;-68
2022/02/01 05:57:34;;;;;;;3.15;1.17;;;4.50;90.30;;;;;;9976265;28;20058;-69
2022/02/01 06:02:25;;;;;;;2.92;1.48;;;4.50;90.30;;;;;;9967008;28;20093;-67
2022/02/01 06:07:15;;;;;;;1.63;1.08;;;4.50;90.30;;;;;;9968124;28;20049;-69
2022/02/01 06:12:09;;;;;;;5.43;1.20;;;4.50;90.30;;;;;;9963767;28;20077;-69
2022/02/01 06:16:59;;;;;;;5.50;1.58;;;4.50;90.40;;;;;;9967626;28;20027;-69
2022/02/01 06:21:50;;;;;;;3.67;1.40;;;4.50;90.40;;;;;;9966099;28;20033;-66
2022/02/01 06:26:41;;;;;;;5.35;2.20;;;4.50;90.40;;;;;;9973432;28;20054;-67
2022/02/01 06:31:31;;;;;;;4.25;1.17;;;4.50;90.30;;;;;;9974838;28;20045;-66
2022/02/01 06:36:22;;;;;;;6.90;2.78;;;4.50;90.40;;;;;;9963600;28;20223;-67
2022/02/01 06:41:13;;;;;;;3.22;1.50;;;4.60;90.30;;;;;;9962214;28;20030;-65
2022/02/01 06:46:06;;;;;;;5.47;2.45;;;4.60;90.30;;;;;;9967779;28;20035;-66
2022/02/01 06:50:56;;;;;;;3.70;1.50;;;4.60;90.20;;;;;;9971162;28;20042;-67
2022/02/01 06:55:58;;;;;;;8.82;1.08;;;4.60;90.30;;;;;;9972040;28;20613;-67
2022/02/01 07:00:49;;;;;;;6.80;1.15;;;4.60;90.20;;;;;;9962325;28;20019;-67
2022/02/01 07:05:40;;;;;;;5.40;1.58;;;4.70;90.20;;;;;;9967393;28;20030;-66
2022/02/01 07:10:31;;;;;;;5.05;1.15;;;4.60;90.20;;;;;;9966951;28;20054;-66
2022/02/01 07:15:22;;;;;;;2.97;1.23;;;4.70;90.20;;;;;;9956216;28;20388;-66
2022/02/01 07:20:12;;;;;;;3.83;1.23;;;4.70;90.00;;;;;;9963310;28;20033;-67
2022/02/01 07:25:13;;;;;;;1.48;0.98;;;4.80;90.00;;;;;;9975549;28;20033;-68
2022/02/01 07:30:10;;;;;;;2.85;1.02;;;4.80;90.00;;;;;;9984441;28;20074;-67
2022/02/01 07:35:00;;;;;;;3.47;1.20;;;4.90;90.00;;;;;;9963183;28;20050;-70
2022/02/01 07:39:51;;;;;;;3.10;0.80;;;4.90;89.90;;;;;;9969085;28;20062;-68
2022/02/01 07:44:42;;;;;;;2.55;1.15;;;4.90;89.80;;;;;;9963527;28;20579;-65
2022/02/01 07:49:32;;;;;;;6.47;1.67;;;5.10;89.60;;;;;;9964875;28;20830;-68
2022/02/01 07:54:23;;;;;;;7.32;2.13;;;5.10;89.50;;;;;;9950101;28;20033;-64
2022/02/01 07:59:15;;;;;;;8.13;1.45;;;5.20;89.40;;;;;;9967011;28;20034;-64
2022/02/01 08:04:05;;;;;;;2.75;1.42;;;5.20;89.60;;;;;;9963517;28;20030;-64
2022/02/01 08:08:57;;;;;;;6.50;1.55;;;5.20;89.70;;;;;;9962855;28;20051;-64
2022/02/01 08:19:10;;;;;;;5.45;1.45;;;5.40;89.50;;;;;;9958918;28;20034;-63
2022/02/01 08:24:01;;;;;;;2.80;1.13;;;5.30;89.30;;;;;;9965359;28;20039;-64
2022/02/01 08:28:51;;;;;;;3.90;1.80;;;5.40;89.40;;;;;;9965723;28;20054;-66
2022/02/01 08:33:43;;;;;;;2.22;1.08;;;5.50;89.10;;;;;;9960866;28;20033;-64
2022/02/01 08:38:33;;;;;;;3.28;2.20;;;5.60;89.10;;;;;;9948366;28;20077;-64
2022/02/01 08:43:24;;;;;;;3.10;1.23;;;5.40;88.90;;;;;;9964280;28;20026;-67
2022/02/01 08:48:15;;;;;;;2.42;1.38;;;5.50;88.80;;;;;;9956690;28;20046;-66
2022/02/01 08:53:19;;;;;;;3.92;2.03;;;5.50;88.40;;;;;;9965448;28;20026;-68
2022/02/01 08:58:10;;;;;;;7.75;1.60;;;5.50;88.90;;;;;;9965618;28;20026;-65
2022/02/01 09:03:03;;;;;;;2.63;1.85;;;5.60;88.50;;;;;;9953448;28;20218;-65
2022/02/01 09:07:54;;;;;;;2.53;1.48;;;5.70;88.40;;;;;;9940461;28;20030;-67
2022/02/01 09:12:46;;;;;;;2.67;1.42;;;5.60;88.50;;;;;;9970748;28;20559;-69
2022/02/01 09:17:37;;;;;;;4.35;1.77;;;5.80;87.10;;;;;;9958984;28;20072;-66
2022/02/01 09:22:28;;;;;;;7.45;0.95;;;5.80;88.20;;;;;;9960150;28;20023;-67
2022/02/01 09:27:19;;;;;;;2.10;1.10;;;5.90;88.40;;;;;;9959195;28;20508;-65
2022/02/01 09:32:10;;;;;;;7.65;1.38;;;5.80;88.20;;;;;;9957648;28;20501;-67
2022/02/01 09:37:03;;;;;;;3.28;1.75;;;5.80;88.30;;;;;;9944581;28;20400;-67
2022/02/01 09:41:54;;;;;;;6.45;1.60;;;5.80;88.00;;;;;;9956596;28;20031;-68
2022/02/01 09:46:48;;;;;;;3.88;1.40;;;5.90;87.90;;;;;;9955733;28;20030;-69
2022/02/01 09:51:40;;;;;;;4.55;1.67;;;6.00;87.90;;;;;;9968990;28;20042;-64
2022/02/01 09:56:31;;;;;;;6.93;1.65;;;6.10;87.70;;;;;;9963376;28;20230;-67
2022/02/01 10:01:29;;;;;;;3.88;1.25;;;6.10;87.40;;;;;;9944981;28;20062;-65
2022/02/01 10:06:19;;;;;;;1.88;1.13;;;6.00;87.50;;;;;;9960919;28;20038;-65
2022/02/01 10:11:11;;;;;;;2.85;1.52;;;6.00;87.30;;;;;;9958985;28;20022;-63
2022/02/01 10:16:12;;;;;;;2.55;1.05;;;6.20;88.10;;;;;;9956312;28;20039;-66
2022/02/01 10:21:11;;;;;;;2.33;1.15;;;6.20;87.20;;;;;;9962593;28;20038;-65
2022/02/01 10:26:05;;;;;;;2.85;1.33;;;6.10;86.80;;;;;;9958662;28;20460;-64
2022/02/01 10:30:57;;;;;;;1.85;1.20;;;6.10;86.90;;;;;;9959899;28;20031;-63
2022/02/01 10:36:00;;;;;;;4.28;1.35;;;6.10;86.70;;;;;;9959892;28;20034;-64
2022/02/01 10:40:51;;;;;;;3.65;1.35;;;6.20;86.50;;;;;;9963110;28;20114;-64
2022/02/01 10:45:44;;;;;;;3.70;1.55;;;6.40;86.10;;;;;;9955660;28;20034;-68
2022/02/01 10:50:34;;;;;;;3.47;1.25;;;6.40;86.00;;;;;;9961306;28;20052;-67
2022/02/01 10:55:25;;;;;;;3.63;1.00;;;6.30;86.10;;;;;;9962557;28;20110;-67
2022/02/01 11:00:19;;;;;;;3.85;1.25;;;6.20;85.60;;;;;;9951843;28;20129;-64
2022/02/01 11:05:11;;;;;;;2.63;1.50;;;6.20;86.10;;;;;;9951393;28;20432;-64
2022/02/01 11:10:05;;;;;;;3.88;1.75;;;6.20;85.60;;;;;;9949787;28;20471;-66
2022/02/01 11:14:56;;;;;;;3.65;1.02;;;6.20;85.90;;;;;;9959069;28;20331;-68
2022/02/01 11:19:57;;;;;;;9.18;2.10;;;6.30;85.50;;;;;;9957280;28;20026;-66
2022/02/01 11:24:58;;;;;;;4.15;1.23;;;6.50;85.60;;;;;;9952157;28;20034;-67
2022/02/01 11:35:01;;;;;;;5.07;1.20;;;6.60;84.90;;;;;;9939883;28;20053;-67
2022/02/01 11:39:54;;;;;;;3.88;1.25;;;6.70;84.30;;;;;;9972306;28;20038;-65
2022/02/01 11:44:57;;;;;;;1.85;0.65;;;6.70;84.30;;;;;;9959499;28;20393;-65
2022/02/01 11:49:59;;;;;;;1.95;0.82;;;6.60;84.00;;;;;;9972730;28;20499;-70
2022/02/01 11:55:01;;;;;;;1.73;0.98;;;6.50;84.00;;;;;;9968674;28;20026;-68
2022/02/01 12:00:02;;;;;;;1.98;1.15;;;6.40;84.20;;;;;;9970907;28;20034;-66
2022/02/01 12:05:03;;;;;;;4.90;1.27;;;6.30;84.30;;;;;;9957838;28;20638;-67
2022/02/01 12:09:54;;;;;;;3.65;0.82;;;6.40;85.10;;;;;;9968381;28;20437;-66
2022/02/01 12:14:55;;;;;;;2.78;1.17;;;6.40;84.20;;;;;;9957063;28;20033;-65
2022/02/01 12:19:52;;;;;;;4.20;1.25;;;6.50;84.30;;;;;;9977172;28;20385;-65
2022/02/01 12:24:42;;;;;;;3.38;1.38;;;6.50;84.10;;;;;;9977047;28;20022;-63
2022/02/01 12:29:33;;;;;;;5.13;1.40;;;6.40;84.50;;;;;;9972460;28;20424;-66
2022/02/01 12:34:24;;;;;;;3.08;1.35;;;6.40;84.80;;;;;;9977656;28;20404;-67
2022/02/01 12:39:28;;;;;;;5.85;1.50;;;6.50;84.70;;;;;;9964997;28;20035;-64
2022/02/01 12:49:10;;;;;;;2.42;0.70;;;6.40;85.00;;;;;;9966766;28;20070;-64
2022/02/01 12:54:00;;;;;;;2.63;1.20;;;6.30;85.10;;;;;;9975114;28;20026;-66
2022/02/01 12:59:00;;;;;;;2.13;1.02;;;6.10;85.40;;;;;;9955827;28;20112;-63
2022/02/01 13:03:50;;;;;;;2.83;1.90;;;6.10;85.60;;;;;;9955380;28;20367;-65
2022/02/01 13:12:57;;;;;;;2.97;0.93;;;6.10;85.50;;;;;;9965702;28;20466;-67
2022/02/01 13:24:00;;;;;;;1.95;1.13;;;6.80;85.60;;;;;;9979395;28;20480;-62
2022/02/01 13:29:06;;;;;;;2.97;0.90;;;6.20;85.40;;;;;;9964103;28;20046;-64
2022/02/01 13:34:03;;;;;;;5.43;1.27;;;6.20;85.30;;;;;;9976872;28;20022;-64
2022/02/01 13:38:59;;;;;;;1.90;1.15;;;6.20;85.30;;;;;;9969794;28;20270;-63
2022/02/01 13:43:51;;;;;;;;;;;6.10;85.30;;;;;;9962989;28;20027;-61
2022/02/01 13:48:42;;;;;;;3.28;1.10;;;6.10;85.60;;;;;;9954327;28;19929;-63
2022/02/01 13:53:34;;;;;;;2.58;0.75;;;6.10;85.60;;;;;;9968708;28;20259;-63
2022/02/01 13:58:25;;;;;;;1.48;1.00;;;6.10;85.60;;;;;;9955399;28;20501;-63
2022/02/01 14:08:34;;;;;;;0.80;0.70;;;6.10;86.00;;;;;;9961122;28;20053;-63
2022/02/01 14:28:55;;;;;;;1.50;0.98;;;5.80;86.90;;;;;;9925738;28;20656;-64
2022/02/01 14:34:00;;;;;;;2.72;0.82;;;5.80;87.10;;;;;;9963789;28;20452;-65
2022/02/01 14:49:13;;;;;;;2.37;0.73;;;5.50;88.30;;;;;;9871871;28;20509;-65
2022/02/01 14:54:10;;;;;;;0.80;0.75;;;5.30;89.10;;;;;;9955355;28;20364;-65
2022/02/01 15:14:28;;;;;;;3.10;0.75;;;5.10;90.00;;;;;;9953129;28;20753;-62
2022/02/01 15:19:19;;;;;;;0.93;0.68;;;5.20;90.10;;;;;;9961877;28;20331;-62
2022/02/01 15:24:12;;;;;;;1.55;0.90;;;5.10;90.20;;;;;;9964317;28;20029;-65
2022/02/01 15:29:02;;;;;;;1.13;0.90;;;5.20;90.50;;;;;;9950221;28;20101;-64
2022/02/01 15:33:53;;;;;;;7.63;1.00;;;5.20;90.40;;;;;;9953921;28;20023;-64
2022/02/01 15:45:54;;;;;;;1.45;0.90;;;5.20;90.60;;;;;;9960411;28;20030;-62
2022/02/01 15:54:40;;;;;;;1.58;0.80;;;5.20;90.70;;;;;;9962949;28;20029;-65
2022/02/01 15:59:35;;;;;;;1.05;0.73;;;5.30;90.50;;;;;;9944358;28;20083;-65
2022/02/01 16:04:27;;;;;;;2.03;0.77;;;5.40;90.60;;;;;;9948140;28;20026;-64
2022/02/01 16:09:26;;;;;;;1.42;0.70;;;5.40;90.70;;;;;;9943824;28;20049;-64
2022/02/01 16:14:17;;;;;;;3.05;0.52;;;5.40;90.90;;;;;;9968879;28;20819;-64
2022/02/01 16:19:10;;;;;;;1.30;0.63;;;5.40;90.70;;;;;;9943190;28;20022;-64
2022/02/01 16:24:01;;;;;;;1.50;0.70;;;5.40;90.70;;;;;;9974945;28;20551;-65
2022/02/01 16:28:53;;;;;;;3.20;0.77;;;5.40;90.90;;;;;;9967273;28;20049;-67
2022/02/01 16:33:45;;;;;;;0.90;0.50;;;5.50;91.10;;;;;;9962834;28;20037;-64
2022/02/01 16:38:38;;;;;;;0.30;0.30;;;5.50;90.90;;;;;;9948194;28;20409;-63
2022/02/01 16:43:34;;;;;;;1.08;0.60;;;5.50;90.90;;;;;;9971267;28;20041;-63
2022/02/01 16:48:25;;;;;;;0.80;0.55;;;5.50;90.90;;;;;;9977754;28;20035;-62
2022/02/01 16:53:18;;;;;;;3.20;0.65;;;5.50;90.90;;;;;;9957159;28;20069;-67
2022/02/01 16:58:28;;;;;;;1.13;0.60;;;5.60;90.90;;;;;;9964115;28;20081;-65
2022/02/01 17:03:20;;;;;;;0.95;0.57;;;5.60;90.90;;;;;;9957440;28;20382;-61
2022/02/01 17:08:12;;;;;;;1.70;0.50;;;5.60;90.90;;;;;;9962469;28;20050;-67
2022/02/01 17:23:05;;;;;;;0.73;0.45;;;5.60;91.10;;;;;;9966400;28;20089;-64
2022/02/01 17:27:56;;;;;;;1.92;0.95;;;5.60;91.10;;;;;;9972027;28;20059;-64
2022/02/01 17:32:46;;;;;;;1.73;0.70;;;5.60;91.00;;;;;;9977021;28;20041;-65
2022/02/01 17:37:37;;;;;;;1.98;0.60;;;5.50;91.30;;;;;;9964286;28;20056;-67
2022/02/01 17:42:28;;;;;;;1.00;0.73;;;5.60;91.30;;;;;;9977233;28;20019;-66
2022/02/01 17:47:18;;;;;;;1.85;1.00;;;5.60;91.30;;;;;;9981160;28;20050;-65
2022/02/01 17:52:22;;;;;;;1.75;0.77;;;5.60;91.20;;;;;;9969413;28;20096;-66
2022/02/01 17:57:13;;;;;;;0.60;0.60;;;5.70;91.60;;;;;;9958763;28;20034;-66
2022/02/01 18:02:04;;;;;;;1.95;0.65;;;5.70;91.30;;;;;;9983543;28;20045;-67
2022/02/01 18:06:56;;;;;;;1.30;0.80;;;5.80;91.30;;;;;;9969935;28;20532;-66
2022/02/01 18:16:41;;;;;;;2.15;1.08;;;5.80;91.50;;;;;;9976019;28;20039;-64
2022/02/01 18:21:33;;;;;;;0.65;0.65;;;5.80;91.40;;;;;;9948244;28;20026;-71
2022/02/01 18:26:24;;;;;;;1.35;0.52;;;5.80;91.40;;;;;;9966971;28;21334;-66
2022/02/01 18:31:15;;;;;;;2.22;1.00;;;5.90;91.50;;;;;;9976559;28;20171;-64
2022/02/01 18:36:18;;;;;;;1.67;0.82;;;5.80;91.50;;;;;;9974706;28;20109;-67
2022/02/01 18:41:12;;;;;;;1.40;1.20;;;5.90;91.50;;;;;;9964533;28;20081;-64
2022/02/01 18:46:12;;;;;;;0.95;0.82;;;5.80;91.50;;;;;;9963306;28;20023;-64
2022/02/01 18:51:14;;;;;;;0.90;0.70;;;5.70;91.80;;;;;;9946291;28;20040;-66
2022/02/01 19:06:41;;;;;;;0.60;0.45;;;5.80;91.80;;;;;;9942894;28;21326;-65
2022/02/01 19:11:48;;;;;;;0.93;0.50;;;5.80;91.80;;;;;;9972875;28;20042;-66
2022/02/01 19:16:41;;;;;;;2.10;1.17;;;5.80;91.90;;;;;;9949592;28;20109;-67
2022/02/01 19:21:34;;;;;;;1.63;0.60;;;5.70;92.00;;;;;;9985057;28;20020;-65
2022/02/01 19:26:28;;;;;;;1.27;0.63;;;5.70;92.00;;;;;;9968775;28;20034;-66
2022/02/01 19:31:24;;;;;;;1.15;0.60;;;5.70;92.10;;;;;;9968423;28;20047;-66
2022/02/01 19:36:16;;;;;;;1.15;0.70;;;5.70;92.00;;;;;;9991822;28;20457;-66
2022/02/01 19:41:12;;;;;;;4.28;0.90;;;5.60;92.30;;;;;;9981562;28;20041;-67
2022/02/01 19:46:02;;;;;;;1.15;0.68;;;5.50;92.50;;;;;;9984317;28;20080;-66
2022/02/01 19:50:54;;;;;;;1.42;0.52;;;5.50;92.50;;;;;;9981261;28;20424;-67
2022/02/01 19:55:49;;;;;;;0.75;0.50;;;5.60;92.50;;;;;;9964362;28;20027;-67
2022/02/01 20:01:01;;;;;;;0.98;0.52;;;5.70;92.40;;;;;;9968185;28;20023;-69
2022/02/01 20:05:53;;;;;;;1.52;0.88;;;5.70;92.60;;;;;;9978666;28;20370;-68
2022/02/01 20:10:49;;;;;;;2.10;0.80;;;5.80;92.60;;;;;;9966214;28;20046;-69
2022/02/01 20:15:42;;;;;;;1.03;0.73;;;5.80;92.60;;;;;;9953191;28;20136;-70
2022/02/01 20:20:33;;;;;;;1.52;0.75;;;5.80;92.70;;;;;;9973255;28;20065;-71
2022/02/01 20:25:26;;;;;;;1.98;0.68;;;5.60;92.80;;;;;;9983605;28;20044;-69
2022/02/01 20:30:17;;;;;;;1.52;0.80;;;5.60;93.20;;;;;;9978343;28;20047;-68
2022/02/01 20:35:21;;;;;;;1.50;0.63;;;5.60;93.20;;;;;;9988279;28;20501;-71
2022/02/01 20:40:13;;;;;;;1.42;1.13;;;5.60;93.30;;;;;;9978826;28;20088;-68
2022/02/01 20:45:05;;;;;;;0.85;0.70;;;5.70;93.10;;;;;;9989415;28;20034;-68
2022/02/01 20:49:56;;;;;;;0.93;0.50;;;5.60;93.50;;;;;;9961400;28;20046;-68
2022/02/01 20:54:47;;;;;;;1.42;0.73;;;5.60;93.60;;;;;;9968283;28;20117;-66
2022/02/01 20:59:38;;;;;;;1.05;0.73;;;5.60;93.60;;;;;;9960611;28;20029;-67
2022/02/01 21:04:29;;;;;;;1.45;0.63;;;5.70;93.70;;;;;;9966636;28;20110;-67
2022/02/01 21:09:20;;;;;;;2.13;0.80;;;5.70;93.90;;;;;;9974495;28;20543;-68
2022/02/01 21:14:10;;;;;;;1.55;0.40;;;5.80;93.80;;;;;;9969719;28;20233;-68
2022/02/01 21:19:01;;;;;;;1.00;0.63;;;5.70;94.00;;;;;;9936547;28;20045;-71
2022/02/01 21:23:52;;;;;;;3.00;0.98;;;5.80;94.00;;;;;;9971892;28;20428;-68
2022/02/01 21:28:43;;;;;;;0.85;0.60;;;5.80;94.00;;;;;;9965424;28;20046;-68
2022/02/01 21:33:34;;;;;;;2.17;0.73;;;5.80;94.30;;;;;;9961084;28;20026;-68
2022/02/01 21:38:25;;;;;;;1.65;0.80;;;5.80;94.20;;;;;;9957995;28;20030;-68
2022/02/01 21:43:19;;;;;;;0.80;0.68;;;5.80;94.40;;;;;;9938942;28;20030;-68
2022/02/01 21:48:09;;;;;;;1.15;0.68;;;5.90;94.40;;;;;;9936400;28;20050;-67
2022/02/01 21:53:00;;;;;;;1.13;0.52;;;5.90;94.30;;;;;;9954294;28;20027;-67
2022/02/01 21:57:52;;;;;;;1.63;0.68;;;5.90;94.50;;;;;;9963556;28;20034;-68
2022/02/01 22:02:42;;;;;;;0.52;0.32;;;5.90;94.70;;;;;;9964062;28;20449;-68
2022/02/01 22:07:33;;;;;;;0.40;0.35;;;5.90;95.10;;;;;;9963852;28;20041;-68
2022/02/01 22:12:24;;;;;;;0.57;0.50;;;5.90;94.90;;;;;;9968519;28;20026;-68
2022/02/01 22:17:14;;;;;;;0.30;0.30;;;5.90;94.80;;;;;;9976700;28;20026;-68
2022/02/01 22:22:06;;;;;;;1.63;0.45;;;6.00;94.90;;;;;;9973650;28;20270;-68
2022/02/01 22:26:59;;;;;;;0.65;0.47;;;5.90;94.80;;;;;;9960638;28;20046;-67
2022/02/01 22:31:49;;;;;;;0.63;0.47;;;6.10;94.70;;;;;;9972563;28;20025;-66
2022/02/01 22:36:40;;;;;;;2.00;0.75;;;6.10;94.80;;;;;;9979340;28;20500;-67
2022/02/01 22:41:34;;;;;;;0.50;0.50;;;6.10;94.60;;;;;;9977896;28;20088;-67
2022/02/01 22:46:25;;;;;;;0.98;0.30;;;6.10;94.80;;;;;;9959131;28;20061;-68
2022/02/01 22:51:17;;;;;;;1.27;0.50;;;6.10;94.90;;;;;;9972041;28;20046;-68
2022/02/01 22:56:10;;;;;;;1.20;0.47;;;6.10;95.00;;;;;;9969488;28;20026;-67
2022/02/01 23:01:01;;;;;;;1.33;0.45;;;6.20;95.00;;;;;;9971474;28;20170;-68
2022/02/01 23:06:03;;;;;;;0.88;0.57;;;6.20;95.00;;;;;;9972193;28;20442;-68
2022/02/01 23:10:59;;;;;;;2.13;1.35;;;6.30;95.00;;;;;;9951292;28;20320;-67
2022/02/01 23:21:03;;;;;;;1.20;0.50;;;6.30;95.00;;;;;;9926725;28;20402;-66
2022/02/01 23:25:53;;;;;;;0.93;0.68;;;6.40;94.90;;;;;;9968466;28;20034;-67
2022/02/01 23:30:47;;;;;;;1.10;0.77;;;6.30;95.00;;;;;;9962994;28;20173;-68
2022/02/01 23:51:03;;;;;;;1.05;0.70;;;6.40;95.20;;;;;;9962048;28;20564;-67
2022/02/01 23:55:58;;;;;;;1.15;0.77;;;6.40;95.10;;;;;;9964370;28;20113;-68
